METAR Formatted Surface Weather Observation
Issued by NWS

Home | Current Version | Previous Version | Text Only | Print | Product List | Glossary On
Versions: 1 2 3 4 5 6 7 8 9 10 11 12 13 14 15 16 17 18 19 20 21 22 23 24 25 26 27 28 29
000
SAUS46 KSGX 180456
MTRNJK
METAR KNJK 180456Z 26004KT 10SM SCT250 14/M01 A3016 RMK AO2 SLP229
T01391011 $



USA.gov is the U.S. government's official web portal to all federal, state and local government web resources and services.